createdAt,value
2023-01-01T13:24:27.553Z,19.50
2023-01-01T13:44:23.789Z,18.90
2023-01-01T14:23:52.848Z,16.10
2023-01-01T14:34:45.042Z,16.00
2023-01-01T14:37:45.901Z,16.00
2023-01-01T14:40:46.870Z,15.90
2023-01-01T14:43:50.892Z,15.60
2023-01-01T14:46:54.461Z,15.40
2023-01-01T14:50:17.467Z,15.10
2023-01-01T14:53:29.804Z,15.40
2023-01-01T14:56:38.334Z,15.70
2023-01-01T14:59:49.221Z,15.60
2023-01-01T15:02:50.792Z,15.60
2023-01-01T15:06:03.418Z,15.50
2023-01-01T15:09:04.319Z,15.20
2023-01-01T15:12:05.567Z,14.90
2023-01-01T15:15:27.437Z,14.50
2023-01-01T15:18:48.300Z,14.10
2023-01-01T15:21:49.013Z,13.70
2023-01-01T15:24:50.253Z,13.80
2023-01-01T15:27:55.116Z,13.80
2023-01-01T15:30:58.201Z,13.60
2023-01-01T15:33:59.054Z,13.10
2023-01-01T15:37:28.771Z,12.70
2023-01-01T15:40:35.136Z,12.40
2023-01-01T15:43:35.935Z,12.10
2023-01-01T15:46:36.716Z,11.90
2023-01-01T15:49:37.702Z,11.80
2023-01-01T15:52:39.097Z,11.70
2023-01-01T15:55:52.054Z,11.60
2023-01-01T15:59:34.961Z,11.60
2023-01-01T16:02:37.668Z,11.30
2023-01-01T16:05:49.955Z,11.10
2023-01-01T16:08:51.762Z,11.10
2023-01-01T16:11:57.337Z,11.60
2023-01-01T16:14:58.243Z,11.90
2023-01-01T16:17:59.107Z,11.80
2023-01-01T16:21:01.572Z,12.10
2023-01-01T16:24:02.669Z,12.30
2023-01-01T16:27:03.925Z,12.30
2023-01-01T16:30:05.547Z,11.90
2023-01-01T16:33:16.560Z,11.40
2023-01-01T16:36:17.469Z,11.10
2023-01-01T16:39:18.535Z,11.50
2023-01-01T16:42:19.704Z,11.40
2023-01-01T16:45:21.043Z,11.00
2023-01-01T16:48:21.924Z,10.80
2023-01-01T16:51:29.840Z,11.00
2023-01-01T16:54:30.856Z,11.10
2023-01-01T16:57:33.016Z,10.60
2023-01-01T17:00:34.245Z,11.00
2023-01-01T17:03:36.397Z,11.10
2023-01-01T17:06:39.429Z,10.60
2023-01-01T17:09:41.568Z,10.50
2023-01-01T17:12:42.727Z,11.00
2023-01-01T17:15:43.948Z,10.70
2023-01-01T17:22:12.026Z,10.30
2023-01-01T17:25:13.289Z,10.50
2023-01-01T17:28:14.705Z,10.40
2023-01-01T17:31:24.386Z,10.50
2023-01-01T17:34:25.609Z,10.30
2023-01-01T17:37:26.798Z,10.20
2023-01-01T17:40:32.003Z,10.40
2023-01-01T17:43:40.471Z,10.70
2023-01-01T17:46:44.399Z,10.30
2023-01-01T17:49:45.391Z,10.70
2023-01-01T17:52:46.632Z,10.80
2023-01-01T17:55:47.509Z,10.70
2023-01-01T17:58:52.000Z,10.80
2023-01-01T18:01:53.240Z,10.80
2023-01-01T18:04:54.608Z,10.90
2023-01-01T18:07:55.503Z,10.80
2023-01-01T18:10:57.333Z,10.20
2023-01-01T18:14:01.426Z,9.90
2023-01-01T18:17:03.549Z,10.00
2023-01-01T18:20:05.064Z,10.10
2023-01-01T18:23:06.132Z,10.40
2023-01-01T18:26:10.487Z,10.30
2023-01-01T18:29:11.490Z,10.00
2023-01-01T18:32:12.518Z,9.80
2023-01-01T18:35:13.609Z,9.50
2023-01-01T18:38:17.750Z,9.60
2023-01-01T18:41:48.729Z,9.60
2023-01-01T18:44:51.871Z,10.00
2023-01-01T18:47:53.102Z,10.20
2023-01-01T18:50:53.833Z,10.00
2023-01-01T18:53:59.689Z,10.00
2023-01-01T18:57:17.104Z,10.10
2023-01-01T19:00:27.816Z,9.80
2023-01-01T19:03:28.886Z,9.60
2023-01-01T19:06:32.854Z,9.90
2023-01-01T19:09:33.779Z,10.00
2023-01-01T19:12:34.585Z,10.20
2023-01-01T19:15:36.070Z,10.00
2023-01-01T19:18:44.024Z,10.10
2023-01-01T19:21:52.662Z,10.10
2023-01-01T19:24:53.604Z,9.80
2023-01-01T19:27:54.401Z,9.70
2023-01-01T19:30:55.424Z,9.60
2023-01-01T19:33:56.597Z,9.50
2023-01-01T19:36:57.854Z,9.30
2023-01-01T19:39:59.125Z,9.40
2023-01-01T19:43:01.789Z,9.70
2023-01-01T19:46:03.292Z,10.00
2023-01-01T19:49:04.971Z,10.10
2023-01-01T19:52:06.355Z,10.10
2023-01-01T19:55:08.367Z,10.10
2023-01-01T19:58:11.007Z,10.00
2023-01-01T20:01:12.541Z,10.10
2023-01-01T20:04:13.683Z,10.10
2023-01-01T20:07:14.829Z,9.70
2023-01-01T20:10:15.878Z,9.40
2023-01-01T20:13:16.500Z,8.90
2023-01-01T20:16:17.220Z,8.20
2023-01-01T20:19:18.280Z,8.00
2023-01-01T20:22:18.971Z,8.00
2023-01-01T20:25:19.922Z,8.10
2023-01-01T20:28:39.782Z,8.00
2023-01-01T20:31:41.060Z,8.10
2023-01-01T20:34:42.773Z,7.80
2023-01-01T20:37:43.783Z,7.70
2023-01-01T20:40:44.536Z,7.60
2023-01-01T20:43:45.589Z,7.60
2023-01-01T20:46:48.294Z,7.70
2023-01-01T20:49:49.404Z,7.90
2023-01-01T20:52:49.982Z,7.90
2023-01-01T20:55:51.231Z,7.90
2023-01-01T20:58:58.998Z,7.80
2023-01-01T21:02:01.881Z,7.60
2023-01-01T21:05:04.911Z,7.60
2023-01-01T21:08:06.241Z,7.70
2023-01-01T21:11:07.008Z,8.10
2023-01-01T21:14:08.252Z,8.20
2023-01-01T21:17:24.473Z,8.30
2023-01-01T21:20:38.267Z,8.30
2023-01-01T21:23:38.973Z,8.30
2023-01-01T21:26:39.690Z,8.50
2023-01-01T21:29:48.475Z,8.50
2023-01-01T21:32:50.873Z,8.40
2023-01-01T21:35:52.134Z,8.40
2023-01-01T21:38:52.863Z,8.40
2023-01-01T21:41:53.761Z,8.40
2023-01-01T21:44:57.861Z,8.30
2023-01-01T21:48:17.648Z,8.00
2023-01-01T21:51:50.011Z,7.70
2023-01-01T21:54:53.095Z,7.40
2023-01-01T21:58:19.362Z,7.60
2023-01-01T22:01:27.752Z,7.40
2023-01-01T22:04:37.979Z,7.80
2023-01-01T22:08:02.886Z,8.30
2023-01-01T22:11:32.949Z,8.10
2023-01-01T22:14:41.403Z,7.60
2023-01-01T22:17:42.148Z,7.30
2023-01-01T22:20:46.283Z,7.10
2023-01-01T22:23:47.755Z,7.20
2023-01-01T22:26:48.629Z,7.30
2023-01-01T22:29:49.653Z,7.50
2023-01-01T22:32:55.492Z,7.50
2023-01-01T22:35:57.995Z,7.50
2023-01-01T22:39:04.047Z,7.40
2023-01-01T22:42:05.012Z,7.30
2023-01-01T22:45:16.188Z,7.20
2023-01-01T22:48:25.025Z,7.10
2023-01-01T22:51:42.423Z,7.20
2023-01-01T22:54:43.288Z,7.20
2023-01-01T22:57:44.440Z,7.00
2023-01-01T23:00:45.878Z,6.90
2023-01-01T23:03:46.789Z,6.70
2023-01-01T23:06:48.339Z,6.60
2023-01-01T23:09:49.476Z,7.00
2023-01-01T23:12:50.268Z,7.20
2023-01-01T23:16:03.075Z,7.10
2023-01-01T23:19:05.107Z,7.00
2023-01-01T23:22:06.467Z,6.80
2023-01-01T23:25:11.815Z,6.80
2023-01-01T23:28:13.541Z,6.70
2023-01-01T23:31:22.752Z,6.90
2023-01-01T23:34:26.030Z,7.00
2023-01-01T23:37:27.821Z,7.00
2023-01-01T23:40:28.562Z,7.00
2023-01-01T23:43:29.344Z,7.20
2023-01-01T23:46:35.253Z,7.20
2023-01-01T23:49:36.885Z,7.40
2023-01-01T23:52:38.505Z,7.70
2023-01-01T23:55:39.585Z,7.50
2023-01-01T23:58:40.900Z,7.60
